sensor_id;sensor_type;location;lat;lon;timestamp;P1;durP1;ratioP1;P2;durP2;ratioP2
34505;SDS011;20748;42.632;23.198;2022-11-15T00:01:00;38.38;;;19.33;;
34505;SDS011;20748;42.632;23.198;2022-11-15T00:03:51;37.70;;;16.80;;
34505;SDS011;20748;42.632;23.198;2022-11-15T00:06:43;35.85;;;18.27;;
34505;SDS011;20748;42.632;23.198;2022-11-15T00:09:34;24.73;;;11.45;;
34505;SDS011;20748;42.632;23.198;2022-11-15T00:12:26;21.73;;;7.97;;
34505;SDS011;20748;42.632;23.198;2022-11-15T00:15:17;16.42;;;6.47;;
34505;SDS011;20748;42.632;23.198;2022-11-15T00:18:11;16.48;;;5.90;;
34505;SDS011;20748;42.632;23.198;2022-11-15T00:21:04;13.82;;;6.07;;
34505;SDS011;20748;42.632;23.198;2022-11-15T00:23:57;15.10;;;8.13;;
34505;SDS011;20748;42.632;23.198;2022-11-15T00:26:48;12.20;;;6.28;;
34505;SDS011;20748;42.632;23.198;2022-11-15T00:29:39;17.98;;;8.50;;
34505;SDS011;20748;42.632;23.198;2022-11-15T00:32:35;18.38;;;9.18;;
34505;SDS011;20748;42.632;23.198;2022-11-15T00:35:26;29.67;;;10.70;;
34505;SDS011;20748;42.632;23.198;2022-11-15T00:38:17;15.90;;;9.70;;
34505;SDS011;20748;42.632;23.198;2022-11-15T00:41:09;21.95;;;9.98;;
34505;SDS011;20748;42.632;23.198;2022-11-15T00:44:00;24.80;;;13.27;;
34505;SDS011;20748;42.632;23.198;2022-11-15T00:46:51;30.55;;;13.20;;
34505;SDS011;20748;42.632;23.198;2022-11-15T00:49:42;26.42;;;14.00;;
34505;SDS011;20748;42.632;23.198;2022-11-15T00:52:33;23.05;;;11.98;;
34505;SDS011;20748;42.632;23.198;2022-11-15T00:55:24;29.40;;;12.20;;
34505;SDS011;20748;42.632;23.198;2022-11-15T00:58:16;42.55;;;15.55;;
34505;SDS011;20748;42.632;23.198;2022-11-15T01:01:07;30.92;;;13.73;;
34505;SDS011;20748;42.632;23.198;2022-11-15T01:03:59;31.42;;;14.80;;
34505;SDS011;20748;42.632;23.198;2022-11-15T01:06:51;32.67;;;14.38;;
34505;SDS011;20748;42.632;23.198;2022-11-15T01:09:42;51.35;;;20.45;;
34505;SDS011;20748;42.632;23.198;2022-11-15T01:12:33;48.15;;;18.95;;
34505;SDS011;20748;42.632;23.198;2022-11-15T01:15:24;37.70;;;15.20;;
34505;SDS011;20748;42.632;23.198;2022-11-15T01:18:15;36.85;;;15.48;;
34505;SDS011;20748;42.632;23.198;2022-11-15T01:21:07;38.03;;;16.05;;
34505;SDS011;20748;42.632;23.198;2022-11-15T01:23:58;33.85;;;15.60;;
34505;SDS011;20748;42.632;23.198;2022-11-15T01:26:49;28.27;;;14.90;;
34505;SDS011;20748;42.632;23.198;2022-11-15T01:29:40;24.48;;;10.65;;
34505;SDS011;20748;42.632;23.198;2022-11-15T01:32:32;30.77;;;10.93;;
34505;SDS011;20748;42.632;23.198;2022-11-15T01:35:23;20.35;;;10.90;;
34505;SDS011;20748;42.632;23.198;2022-11-15T01:38:14;37.05;;;12.95;;
34505;SDS011;20748;42.632;23.198;2022-11-15T01:41:05;35.13;;;16.90;;
34505;SDS011;20748;42.632;23.198;2022-11-15T01:43:57;18.73;;;9.40;;
34505;SDS011;20748;42.632;23.198;2022-11-15T01:47:09;23.55;;;10.85;;
34505;SDS011;20748;42.632;23.198;2022-11-15T01:50:05;21.92;;;8.07;;
34505;SDS011;20748;42.632;23.198;2022-11-15T01:52:59;30.83;;;14.57;;
34505;SDS011;20748;42.632;23.198;2022-11-15T01:55:50;19.25;;;9.82;;
34505;SDS011;20748;42.632;23.198;2022-11-15T01:58:42;22.35;;;9.70;;
34505;SDS011;20748;42.632;23.198;2022-11-15T02:01:34;22.65;;;11.00;;
34505;SDS011;20748;42.632;23.198;2022-11-15T02:04:26;26.40;;;11.25;;
34505;SDS011;20748;42.632;23.198;2022-11-15T02:07:20;24.23;;;10.75;;
34505;SDS011;20748;42.632;23.198;2022-11-15T02:10:13;23.85;;;10.38;;
34505;SDS011;20748;42.632;23.198;2022-11-15T02:13:08;23.65;;;9.35;;
34505;SDS011;20748;42.632;23.198;2022-11-15T02:16:01;22.95;;;8.60;;
34505;SDS011;20748;42.632;23.198;2022-11-15T02:19:02;17.65;;;6.10;;
34505;SDS011;20748;42.632;23.198;2022-11-15T02:22:07;13.00;;;4.10;;
34505;SDS011;20748;42.632;23.198;2022-11-15T02:25:13;9.75;;;4.80;;
34505;SDS011;20748;42.632;23.198;2022-11-15T02:28:40;14.77;;;5.15;;
34505;SDS011;20748;42.632;23.198;2022-11-15T02:31:40;13.75;;;5.93;;
34505;SDS011;20748;42.632;23.198;2022-11-15T02:34:41;9.55;;;4.90;;
34505;SDS011;20748;42.632;23.198;2022-11-15T02:37:42;8.05;;;4.32;;
34505;SDS011;20748;42.632;23.198;2022-11-15T02:40:39;8.48;;;4.00;;
34505;SDS011;20748;42.632;23.198;2022-11-15T02:43:36;8.85;;;3.08;;
34505;SDS011;20748;42.632;23.198;2022-11-15T02:46:49;7.30;;;2.90;;
34505;SDS011;20748;42.632;23.198;2022-11-15T02:50:02;13.68;;;5.28;;
34505;SDS011;20748;42.632;23.198;2022-11-15T02:52:58;7.38;;;3.58;;
34505;SDS011;20748;42.632;23.198;2022-11-15T02:55:49;5.30;;;2.97;;
34505;SDS011;20748;42.632;23.198;2022-11-15T02:58:48;14.65;;;4.68;;
34505;SDS011;20748;42.632;23.198;2022-11-15T03:01:55;10.40;;;3.92;;
34505;SDS011;20748;42.632;23.198;2022-11-15T03:04:57;9.13;;;4.85;;
34505;SDS011;20748;42.632;23.198;2022-11-15T03:07:54;14.80;;;5.03;;
34505;SDS011;20748;42.632;23.198;2022-11-15T03:10:55;12.73;;;5.65;;
34505;SDS011;20748;42.632;23.198;2022-11-15T03:13:54;19.77;;;6.30;;
34505;SDS011;20748;42.632;23.198;2022-11-15T03:16:49;34.25;;;9.68;;
34505;SDS011;20748;42.632;23.198;2022-11-15T03:19:46;30.30;;;9.98;;
34505;SDS011;20748;42.632;23.198;2022-11-15T03:22:41;22.30;;;10.65;;
34505;SDS011;20748;42.632;23.198;2022-11-15T03:25:34;12.75;;;6.32;;
34505;SDS011;20748;42.632;23.198;2022-11-15T03:28:41;9.77;;;4.55;;
34505;SDS011;20748;42.632;23.198;2022-11-15T03:31:35;17.35;;;6.65;;
34505;SDS011;20748;42.632;23.198;2022-11-15T03:34:41;21.02;;;7.82;;
34505;SDS011;20748;42.632;23.198;2022-11-15T03:37:37;19.92;;;8.48;;
34505;SDS011;20748;42.632;23.198;2022-11-15T03:40:35;20.13;;;7.93;;
34505;SDS011;20748;42.632;23.198;2022-11-15T03:43:30;12.80;;;6.18;;
34505;SDS011;20748;42.632;23.198;2022-11-15T03:46:27;14.02;;;6.25;;
34505;SDS011;20748;42.632;23.198;2022-11-15T03:49:24;21.75;;;6.88;;
34505;SDS011;20748;42.632;23.198;2022-11-15T03:52:18;10.93;;;4.82;;
34505;SDS011;20748;42.632;23.198;2022-11-15T03:55:12;18.98;;;8.32;;
34505;SDS011;20748;42.632;23.198;2022-11-15T03:58:06;31.77;;;11.02;;
34505;SDS011;20748;42.632;23.198;2022-11-15T04:00:57;12.27;;;5.82;;
34505;SDS011;20748;42.632;23.198;2022-11-15T04:03:49;12.85;;;4.82;;
34505;SDS011;20748;42.632;23.198;2022-11-15T04:06:40;14.98;;;5.72;;
34505;SDS011;20748;42.632;23.198;2022-11-15T04:09:32;17.92;;;5.85;;
34505;SDS011;20748;42.632;23.198;2022-11-15T04:12:24;19.05;;;6.68;;
34505;SDS011;20748;42.632;23.198;2022-11-15T04:15:23;16.77;;;8.20;;
34505;SDS011;20748;42.632;23.198;2022-11-15T04:18:14;12.15;;;5.65;;
34505;SDS011;20748;42.632;23.198;2022-11-15T04:21:05;11.15;;;4.47;;
34505;SDS011;20748;42.632;23.198;2022-11-15T04:24:16;15.32;;;4.53;;
34505;SDS011;20748;42.632;23.198;2022-11-15T04:27:07;12.90;;;4.63;;
34505;SDS011;20748;42.632;23.198;2022-11-15T04:29:59;22.13;;;7.22;;
34505;SDS011;20748;42.632;23.198;2022-11-15T04:32:50;13.43;;;5.72;;
34505;SDS011;20748;42.632;23.198;2022-11-15T04:35:41;14.50;;;6.97;;
34505;SDS011;20748;42.632;23.198;2022-11-15T04:38:32;21.10;;;6.63;;
34505;SDS011;20748;42.632;23.198;2022-11-15T04:41:23;24.90;;;9.38;;
34505;SDS011;20748;42.632;23.198;2022-11-15T04:44:14;14.95;;;6.88;;
34505;SDS011;20748;42.632;23.198;2022-11-15T04:47:06;12.45;;;6.80;;
34505;SDS011;20748;42.632;23.198;2022-11-15T04:49:58;13.73;;;5.50;;
34505;SDS011;20748;42.632;23.198;2022-11-15T04:52:52;10.27;;;6.18;;
34505;SDS011;20748;42.632;23.198;2022-11-15T04:55:44;19.15;;;7.88;;
34505;SDS011;20748;42.632;23.198;2022-11-15T04:58:35;15.23;;;7.25;;
34505;SDS011;20748;42.632;23.198;2022-11-15T05:01:26;19.27;;;8.63;;
34505;SDS011;20748;42.632;23.198;2022-11-15T05:04:17;12.80;;;7.60;;
34505;SDS011;20748;42.632;23.198;2022-11-15T05:07:11;13.93;;;8.30;;
34505;SDS011;20748;42.632;23.198;2022-11-15T05:10:02;15.18;;;8.68;;
34505;SDS011;20748;42.632;23.198;2022-11-15T05:12:53;21.08;;;9.68;;
34505;SDS011;20748;42.632;23.198;2022-11-15T05:15:44;20.77;;;10.65;;
34505;SDS011;20748;42.632;23.198;2022-11-15T05:18:35;22.33;;;10.65;;
34505;SDS011;20748;42.632;23.198;2022-11-15T05:21:27;24.20;;;8.88;;
34505;SDS011;20748;42.632;23.198;2022-11-15T05:24:18;47.85;;;20.73;;
34505;SDS011;20748;42.632;23.198;2022-11-15T05:27:09;24.58;;;11.27;;
34505;SDS011;20748;42.632;23.198;2022-11-15T05:30:00;25.33;;;11.52;;
34505;SDS011;20748;42.632;23.198;2022-11-15T05:32:51;15.48;;;8.57;;
34505;SDS011;20748;42.632;23.198;2022-11-15T05:35:43;21.95;;;8.35;;
34505;SDS011;20748;42.632;23.198;2022-11-15T05:38:39;20.77;;;10.10;;
34505;SDS011;20748;42.632;23.198;2022-11-15T05:41:31;17.90;;;8.55;;
34505;SDS011;20748;42.632;23.198;2022-11-15T05:44:24;22.77;;;10.73;;
34505;SDS011;20748;42.632;23.198;2022-11-15T05:47:17;14.20;;;8.50;;
34505;SDS011;20748;42.632;23.198;2022-11-15T05:50:12;23.50;;;10.85;;
34505;SDS011;20748;42.632;23.198;2022-11-15T05:53:04;29.92;;;12.70;;
34505;SDS011;20748;42.632;23.198;2022-11-15T05:55:57;30.13;;;12.35;;
34505;SDS011;20748;42.632;23.198;2022-11-15T05:58:48;28.02;;;11.45;;
34505;SDS011;20748;42.632;23.198;2022-11-15T06:01:39;27.42;;;13.15;;
34505;SDS011;20748;42.632;23.198;2022-11-15T06:04:31;46.85;;;18.90;;
34505;SDS011;20748;42.632;23.198;2022-11-15T06:07:22;29.88;;;14.57;;
34505;SDS011;20748;42.632;23.198;2022-11-15T06:10:13;19.75;;;11.27;;
34505;SDS011;20748;42.632;23.198;2022-11-15T06:13:04;22.20;;;9.40;;
34505;SDS011;20748;42.632;23.198;2022-11-15T06:15:56;25.90;;;12.25;;
34505;SDS011;20748;42.632;23.198;2022-11-15T06:18:47;29.33;;;12.98;;
34505;SDS011;20748;42.632;23.198;2022-11-15T06:21:38;26.88;;;11.30;;
34505;SDS011;20748;42.632;23.198;2022-11-15T06:24:29;23.33;;;10.50;;
34505;SDS011;20748;42.632;23.198;2022-11-15T06:27:19;28.98;;;13.43;;
34505;SDS011;20748;42.632;23.198;2022-11-15T06:30:11;21.20;;;10.88;;
34505;SDS011;20748;42.632;23.198;2022-11-15T06:33:03;32.90;;;15.18;;
34505;SDS011;20748;42.632;23.198;2022-11-15T06:35:55;27.38;;;14.23;;
34505;SDS011;20748;42.632;23.198;2022-11-15T06:38:46;28.40;;;13.82;;
34505;SDS011;20748;42.632;23.198;2022-11-15T06:41:38;34.38;;;15.63;;
34505;SDS011;20748;42.632;23.198;2022-11-15T06:44:29;21.58;;;12.27;;
34505;SDS011;20748;42.632;23.198;2022-11-15T06:47:20;26.17;;;12.50;;
34505;SDS011;20748;42.632;23.198;2022-11-15T06:50:12;20.10;;;10.75;;
34505;SDS011;20748;42.632;23.198;2022-11-15T06:53:03;22.55;;;10.48;;
34505;SDS011;20748;42.632;23.198;2022-11-15T06:55:57;23.05;;;10.80;;
34505;SDS011;20748;42.632;23.198;2022-11-15T06:58:49;21.52;;;9.75;;
34505;SDS011;20748;42.632;23.198;2022-11-15T07:01:40;18.55;;;8.00;;
34505;SDS011;20748;42.632;23.198;2022-11-15T07:04:33;16.88;;;9.20;;
34505;SDS011;20748;42.632;23.198;2022-11-15T07:07:25;21.30;;;8.95;;
34505;SDS011;20748;42.632;23.198;2022-11-15T07:10:16;21.95;;;11.05;;
34505;SDS011;20748;42.632;23.198;2022-11-15T07:13:07;19.55;;;9.68;;
34505;SDS011;20748;42.632;23.198;2022-11-15T07:16:00;21.13;;;10.73;;
34505;SDS011;20748;42.632;23.198;2022-11-15T07:18:52;21.05;;;11.68;;
34505;SDS011;20748;42.632;23.198;2022-11-15T07:21:43;24.60;;;10.60;;
34505;SDS011;20748;42.632;23.198;2022-11-15T07:24:35;24.58;;;12.52;;
34505;SDS011;20748;42.632;23.198;2022-11-15T07:27:26;33.67;;;16.20;;
34505;SDS011;20748;42.632;23.198;2022-11-15T07:30:17;28.52;;;15.25;;
34505;SDS011;20748;42.632;23.198;2022-11-15T07:33:07;22.58;;;11.40;;
34505;SDS011;20748;42.632;23.198;2022-11-15T07:35:59;19.98;;;11.02;;
34505;SDS011;20748;42.632;23.198;2022-11-15T07:38:52;18.98;;;8.32;;
34505;SDS011;20748;42.632;23.198;2022-11-15T07:41:43;14.13;;;8.15;;
34505;SDS011;20748;42.632;23.198;2022-11-15T07:44:34;16.02;;;8.85;;
34505;SDS011;20748;42.632;23.198;2022-11-15T07:47:28;14.10;;;5.95;;
34505;SDS011;20748;42.632;23.198;2022-11-15T07:50:19;17.85;;;8.13;;
34505;SDS011;20748;42.632;23.198;2022-11-15T07:53:10;15.88;;;6.72;;
34505;SDS011;20748;42.632;23.198;2022-11-15T07:56:02;13.57;;;6.60;;
34505;SDS011;20748;42.632;23.198;2022-11-15T07:58:56;16.13;;;7.95;;
34505;SDS011;20748;42.632;23.198;2022-11-15T08:01:47;15.52;;;7.75;;
34505;SDS011;20748;42.632;23.198;2022-11-15T08:04:38;20.42;;;10.38;;
34505;SDS011;20748;42.632;23.198;2022-11-15T08:07:29;25.27;;;12.27;;
34505;SDS011;20748;42.632;23.198;2022-11-15T08:10:21;19.85;;;10.88;;
34505;SDS011;20748;42.632;23.198;2022-11-15T08:13:13;20.88;;;10.40;;
34505;SDS011;20748;42.632;23.198;2022-11-15T08:16:04;14.70;;;8.57;;
34505;SDS011;20748;42.632;23.198;2022-11-15T08:18:56;23.52;;;11.32;;
34505;SDS011;20748;42.632;23.198;2022-11-15T08:21:47;17.13;;;8.52;;
34505;SDS011;20748;42.632;23.198;2022-11-15T08:24:38;19.23;;;7.10;;
34505;SDS011;20748;42.632;23.198;2022-11-15T08:27:29;14.88;;;7.30;;
34505;SDS011;20748;42.632;23.198;2022-11-15T08:30:21;19.23;;;7.45;;
34505;SDS011;20748;42.632;23.198;2022-11-15T08:33:13;16.60;;;7.00;;
34505;SDS011;20748;42.632;23.198;2022-11-15T08:36:04;16.52;;;6.32;;
34505;SDS011;20748;42.632;23.198;2022-11-15T08:38:55;12.13;;;5.68;;
34505;SDS011;20748;42.632;23.198;2022-11-15T08:41:46;12.32;;;4.78;;
34505;SDS011;20748;42.632;23.198;2022-11-15T08:44:37;12.85;;;5.28;;
34505;SDS011;20748;42.632;23.198;2022-11-15T08:47:29;13.27;;;4.30;;
34505;SDS011;20748;42.632;23.198;2022-11-15T08:50:20;12.52;;;5.13;;
34505;SDS011;20748;42.632;23.198;2022-11-15T08:53:12;8.88;;;3.80;;
34505;SDS011;20748;42.632;23.198;2022-11-15T08:56:03;20.80;;;9.50;;
34505;SDS011;20748;42.632;23.198;2022-11-15T08:58:57;20.10;;;9.23;;
34505;SDS011;20748;42.632;23.198;2022-11-15T09:01:48;29.38;;;9.95;;
34505;SDS011;20748;42.632;23.198;2022-11-15T09:04:40;21.52;;;8.95;;
34505;SDS011;20748;42.632;23.198;2022-11-15T09:07:31;26.20;;;10.23;;
34505;SDS011;20748;42.632;23.198;2022-11-15T09:10:22;28.73;;;10.73;;
34505;SDS011;20748;42.632;23.198;2022-11-15T09:13:13;24.73;;;9.73;;
34505;SDS011;20748;42.632;23.198;2022-11-15T09:16:04;22.80;;;9.50;;
34505;SDS011;20748;42.632;23.198;2022-11-15T09:18:56;25.52;;;11.32;;
34505;SDS011;20748;42.632;23.198;2022-11-15T09:21:47;26.70;;;10.90;;
34505;SDS011;20748;42.632;23.198;2022-11-15T09:24:38;26.83;;;10.18;;
34505;SDS011;20748;42.632;23.198;2022-11-15T09:27:29;25.60;;;10.68;;
34505;SDS011;20748;42.632;23.198;2022-11-15T09:30:21;30.40;;;11.40;;
34505;SDS011;20748;42.632;23.198;2022-11-15T09:33:12;27.02;;;11.13;;
34505;SDS011;20748;42.632;23.198;2022-11-15T09:36:04;30.70;;;12.18;;
34505;SDS011;20748;42.632;23.198;2022-11-15T09:38:58;36.13;;;13.88;;
34505;SDS011;20748;42.632;23.198;2022-11-15T09:41:57;24.48;;;11.25;;
34505;SDS011;20748;42.632;23.198;2022-11-15T09:44:59;31.98;;;13.38;;
34505;SDS011;20748;42.632;23.198;2022-11-15T09:48:08;30.85;;;14.93;;
34505;SDS011;20748;42.632;23.198;2022-11-15T09:51:35;26.88;;;11.02;;
34505;SDS011;20748;42.632;23.198;2022-11-15T09:54:23;27.15;;;11.00;;
34505;SDS011;20748;42.632;23.198;2022-11-15T09:57:21;25.75;;;11.90;;
34505;SDS011;20748;42.632;23.198;2022-11-15T10:00:04;31.83;;;13.32;;
34505;SDS011;20748;42.632;23.198;2022-11-15T10:03:11;33.30;;;11.77;;
34505;SDS011;20748;42.632;23.198;2022-11-15T10:05:46;30.98;;;13.23;;
34505;SDS011;20748;42.632;23.198;2022-11-15T10:11:19;32.58;;;10.98;;
34505;SDS011;20748;42.632;23.198;2022-11-15T10:14:10;25.10;;;10.77;;
34505;SDS011;20748;42.632;23.198;2022-11-15T10:19:48;24.48;;;10.00;;
34505;SDS011;20748;42.632;23.198;2022-11-15T10:22:38;26.30;;;9.20;;
34505;SDS011;20748;42.632;23.198;2022-11-15T10:25:16;20.88;;;8.60;;
34505;SDS011;20748;42.632;23.198;2022-11-15T10:27:53;23.00;;;9.45;;
34505;SDS011;20748;42.632;23.198;2022-11-15T10:30:32;22.27;;;8.30;;
34505;SDS011;20748;42.632;23.198;2022-11-15T10:33:10;35.60;;;14.68;;
34505;SDS011;20748;42.632;23.198;2022-11-15T10:35:47;28.50;;;11.07;;
34505;SDS011;20748;42.632;23.198;2022-11-15T10:38:19;18.50;;;8.90;;
34505;SDS011;20748;42.632;23.198;2022-11-15T10:40:51;22.35;;;10.85;;
34505;SDS011;20748;42.632;23.198;2022-11-15T10:43:39;13.43;;;7.18;;
34505;SDS011;20748;42.632;23.198;2022-11-15T10:46:17;13.95;;;6.05;;
34505;SDS011;20748;42.632;23.198;2022-11-15T10:49:12;16.95;;;7.97;;
34505;SDS011;20748;42.632;23.198;2022-11-15T10:51:47;15.02;;;7.07;;
34505;SDS011;20748;42.632;23.198;2022-11-15T10:54:21;13.70;;;5.93;;
34505;SDS011;20748;42.632;23.198;2022-11-15T10:56:59;17.17;;;7.50;;
34505;SDS011;20748;42.632;23.198;2022-11-15T10:59:38;18.27;;;8.02;;
34505;SDS011;20748;42.632;23.198;2022-11-15T11:02:24;22.77;;;9.50;;
34505;SDS011;20748;42.632;23.198;2022-11-15T11:05:00;23.20;;;9.18;;
34505;SDS011;20748;42.632;23.198;2022-11-15T11:07:34;21.73;;;8.65;;
34505;SDS011;20748;42.632;23.198;2022-11-15T11:10:18;30.33;;;11.38;;
34505;SDS011;20748;42.632;23.198;2022-11-15T11:13:12;34.08;;;12.27;;
34505;SDS011;20748;42.632;23.198;2022-11-15T11:15:46;33.13;;;12.75;;
34505;SDS011;20748;42.632;23.198;2022-11-15T11:18:25;29.40;;;13.77;;
34505;SDS011;20748;42.632;23.198;2022-11-15T11:23:43;25.90;;;11.43;;
34505;SDS011;20748;42.632;23.198;2022-11-15T11:26:29;28.67;;;12.38;;
34505;SDS011;20748;42.632;23.198;2022-11-15T11:29:15;36.97;;;16.00;;
34505;SDS011;20748;42.632;23.198;2022-11-15T11:32:01;35.95;;;13.43;;
34505;SDS011;20748;42.632;23.198;2022-11-15T11:34:47;36.10;;;16.25;;
34505;SDS011;20748;42.632;23.198;2022-11-15T11:37:28;40.15;;;16.38;;
34505;SDS011;20748;42.632;23.198;2022-11-15T11:40:10;38.05;;;15.35;;
34505;SDS011;20748;42.632;23.198;2022-11-15T11:42:52;41.47;;;17.75;;
34505;SDS011;20748;42.632;23.198;2022-11-15T11:45:43;41.92;;;16.95;;
34505;SDS011;20748;42.632;23.198;2022-11-15T11:48:30;51.13;;;16.55;;
34505;SDS011;20748;42.632;23.198;2022-11-15T11:51:16;37.90;;;16.40;;
34505;SDS011;20748;42.632;23.198;2022-11-15T11:56:27;45.63;;;17.95;;
34505;SDS011;20748;42.632;23.198;2022-11-15T11:59:02;47.55;;;19.50;;
34505;SDS011;20748;42.632;23.198;2022-11-15T12:01:44;46.90;;;19.98;;
34505;SDS011;20748;42.632;23.198;2022-11-15T12:04:19;53.13;;;20.67;;
34505;SDS011;20748;42.632;23.198;2022-11-15T12:06:57;43.20;;;19.45;;
34505;SDS011;20748;42.632;23.198;2022-11-15T12:09:33;41.65;;;19.10;;
34505;SDS011;20748;42.632;23.198;2022-11-15T12:12:11;45.13;;;18.73;;
34505;SDS011;20748;42.632;23.198;2022-11-15T12:28:25;50.25;;;17.92;;
34505;SDS011;20748;42.632;23.198;2022-11-15T12:31:10;48.25;;;18.00;;
34505;SDS011;20748;42.632;23.198;2022-11-15T12:33:47;50.45;;;20.50;;
34505;SDS011;20748;42.632;23.198;2022-11-15T12:36:35;52.60;;;20.55;;
34505;SDS011;20748;42.632;23.198;2022-11-15T12:39:10;53.73;;;21.13;;
34505;SDS011;20748;42.632;23.198;2022-11-15T12:41:44;48.45;;;20.42;;
34505;SDS011;20748;42.632;23.198;2022-11-15T12:47:30;57.42;;;22.63;;
34505;SDS011;20748;42.632;23.198;2022-11-15T12:50:02;56.25;;;22.42;;
34505;SDS011;20748;42.632;23.198;2022-11-15T12:52:35;63.38;;;26.30;;
34505;SDS011;20748;42.632;23.198;2022-11-15T12:58:24;56.90;;;21.58;;
34505;SDS011;20748;42.632;23.198;2022-11-15T13:01:01;51.15;;;21.67;;
34505;SDS011;20748;42.632;23.198;2022-11-15T13:03:33;50.20;;;21.00;;
34505;SDS011;20748;42.632;23.198;2022-11-15T13:06:08;64.50;;;21.25;;
34505;SDS011;20748;42.632;23.198;2022-11-15T13:09:02;54.55;;;21.23;;
34505;SDS011;20748;42.632;23.198;2022-11-15T13:11:41;55.28;;;20.50;;
34505;SDS011;20748;42.632;23.198;2022-11-15T13:17:24;52.78;;;21.67;;
34505;SDS011;20748;42.632;23.198;2022-11-15T13:20:00;49.55;;;22.77;;
34505;SDS011;20748;42.632;23.198;2022-11-15T13:22:37;55.30;;;22.15;;
34505;SDS011;20748;42.632;23.198;2022-11-15T13:28:31;58.90;;;22.60;;
34505;SDS011;20748;42.632;23.198;2022-11-15T13:31:25;57.67;;;21.52;;
34505;SDS011;20748;42.632;23.198;2022-11-15T13:34:16;50.85;;;21.20;;
34505;SDS011;20748;42.632;23.198;2022-11-15T13:37:29;56.70;;;22.13;;
34505;SDS011;20748;42.632;23.198;2022-11-15T13:40:15;58.28;;;21.13;;
34505;SDS011;20748;42.632;23.198;2022-11-15T13:42:51;59.65;;;23.50;;
34505;SDS011;20748;42.632;23.198;2022-11-15T13:45:24;47.05;;;21.70;;
34505;SDS011;20748;42.632;23.198;2022-11-15T13:47:57;55.40;;;24.48;;
34505;SDS011;20748;42.632;23.198;2022-11-15T13:50:31;62.28;;;23.63;;
34505;SDS011;20748;42.632;23.198;2022-11-15T13:53:09;63.10;;;23.88;;
34505;SDS011;20748;42.632;23.198;2022-11-15T13:55:41;59.33;;;22.65;;
34505;SDS011;20748;42.632;23.198;2022-11-15T13:58:14;64.93;;;23.63;;
34505;SDS011;20748;42.632;23.198;2022-11-15T14:00:58;55.47;;;25.73;;
34505;SDS011;20748;42.632;23.198;2022-11-15T14:03:33;57.05;;;22.13;;
34505;SDS011;20748;42.632;23.198;2022-11-15T14:06:09;63.20;;;25.75;;
34505;SDS011;20748;42.632;23.198;2022-11-15T14:08:58;58.83;;;23.67;;
34505;SDS011;20748;42.632;23.198;2022-11-15T14:11:33;52.10;;;19.90;;
34505;SDS011;20748;42.632;23.198;2022-11-15T14:14:12;49.63;;;22.73;;
34505;SDS011;20748;42.632;23.198;2022-11-15T14:16:47;58.53;;;25.30;;
34505;SDS011;20748;42.632;23.198;2022-11-15T14:19:34;63.95;;;27.55;;
34505;SDS011;20748;42.632;23.198;2022-11-15T14:22:19;64.03;;;26.73;;
34505;SDS011;20748;42.632;23.198;2022-11-15T14:28:15;51.75;;;23.33;;
34505;SDS011;20748;42.632;23.198;2022-11-15T14:31:01;70.32;;;22.60;;
34505;SDS011;20748;42.632;23.198;2022-11-15T14:33:38;63.63;;;24.88;;
34505;SDS011;20748;42.632;23.198;2022-11-15T14:36:12;58.67;;;24.27;;
34505;SDS011;20748;42.632;23.198;2022-11-15T14:38:46;66.65;;;28.50;;
34505;SDS011;20748;42.632;23.198;2022-11-15T14:41:20;63.78;;;26.50;;
34505;SDS011;20748;42.632;23.198;2022-11-15T14:43:53;70.38;;;28.15;;
34505;SDS011;20748;42.632;23.198;2022-11-15T14:46:26;60.22;;;26.05;;
34505;SDS011;20748;42.632;23.198;2022-11-15T14:48:58;67.53;;;27.80;;
34505;SDS011;20748;42.632;23.198;2022-11-15T14:51:31;73.72;;;27.08;;
34505;SDS011;20748;42.632;23.198;2022-11-15T14:54:05;65.13;;;25.73;;
34505;SDS011;20748;42.632;23.198;2022-11-15T14:56:37;72.60;;;26.98;;
34505;SDS011;20748;42.632;23.198;2022-11-15T14:59:09;72.60;;;28.52;;
34505;SDS011;20748;42.632;23.198;2022-11-15T15:01:42;73.50;;;27.95;;
34505;SDS011;20748;42.632;23.198;2022-11-15T15:04:14;61.60;;;27.25;;
34505;SDS011;20748;42.632;23.198;2022-11-15T15:06:46;65.90;;;29.05;;
34505;SDS011;20748;42.632;23.198;2022-11-15T15:09:20;83.13;;;27.30;;
34505;SDS011;20748;42.632;23.198;2022-11-15T15:11:52;74.88;;;27.95;;
34505;SDS011;20748;42.632;23.198;2022-11-15T15:14:26;71.63;;;25.05;;
34505;SDS011;20748;42.632;23.198;2022-11-15T15:16:58;73.80;;;30.05;;
34505;SDS011;20748;42.632;23.198;2022-11-15T15:19:30;77.93;;;35.33;;
34505;SDS011;20748;42.632;23.198;2022-11-15T15:22:03;85.70;;;32.53;;
34505;SDS011;20748;42.632;23.198;2022-11-15T15:24:36;77.72;;;30.73;;
34505;SDS011;20748;42.632;23.198;2022-11-15T15:27:09;80.35;;;31.45;;
34505;SDS011;20748;42.632;23.198;2022-11-15T15:29:41;81.82;;;33.58;;
34505;SDS011;20748;42.632;23.198;2022-11-15T15:32:13;74.18;;;30.08;;
34505;SDS011;20748;42.632;23.198;2022-11-15T15:34:46;82.75;;;33.78;;
34505;SDS011;20748;42.632;23.198;2022-11-15T15:37:21;80.60;;;34.58;;
34505;SDS011;20748;42.632;23.198;2022-11-15T15:39:56;85.53;;;34.45;;
34505;SDS011;20748;42.632;23.198;2022-11-15T15:42:28;68.55;;;31.42;;
34505;SDS011;20748;42.632;23.198;2022-11-15T15:45:01;73.28;;;31.05;;
34505;SDS011;20748;42.632;23.198;2022-11-15T15:47:33;78.30;;;34.33;;
34505;SDS011;20748;42.632;23.198;2022-11-15T15:50:12;75.13;;;31.58;;
34505;SDS011;20748;42.632;23.198;2022-11-15T15:52:52;95.20;;;36.78;;
34505;SDS011;20748;42.632;23.198;2022-11-15T15:55:27;101.80;;;41.45;;
34505;SDS011;20748;42.632;23.198;2022-11-15T15:58:00;98.82;;;41.47;;
34505;SDS011;20748;42.632;23.198;2022-11-15T16:00:32;93.22;;;38.45;;
34505;SDS011;20748;42.632;23.198;2022-11-15T16:03:05;92.47;;;42.03;;
34505;SDS011;20748;42.632;23.198;2022-11-15T16:05:37;131.23;;;53.53;;
34505;SDS011;20748;42.632;23.198;2022-11-15T16:08:12;121.00;;;51.38;;
34505;SDS011;20748;42.632;23.198;2022-11-15T16:10:50;110.18;;;45.13;;
34505;SDS011;20748;42.632;23.198;2022-11-15T16:13:22;114.80;;;50.20;;
34505;SDS011;20748;42.632;23.198;2022-11-15T16:15:55;103.22;;;46.45;;
34505;SDS011;20748;42.632;23.198;2022-11-15T16:18:27;125.45;;;51.20;;
34505;SDS011;20748;42.632;23.198;2022-11-15T16:21:00;115.55;;;50.60;;
34505;SDS011;20748;42.632;23.198;2022-11-15T16:23:32;113.13;;;51.58;;
34505;SDS011;20748;42.632;23.198;2022-11-15T16:26:09;110.03;;;48.75;;
34505;SDS011;20748;42.632;23.198;2022-11-15T16:28:51;102.57;;;49.00;;
34505;SDS011;20748;42.632;23.198;2022-11-15T16:31:24;106.03;;;47.63;;
34505;SDS011;20748;42.632;23.198;2022-11-15T16:33:56;105.00;;;46.25;;
34505;SDS011;20748;42.632;23.198;2022-11-15T16:36:30;112.60;;;48.97;;
34505;SDS011;20748;42.632;23.198;2022-11-15T16:39:05;112.57;;;49.80;;
34505;SDS011;20748;42.632;23.198;2022-11-15T16:41:38;107.28;;;45.97;;
34505;SDS011;20748;42.632;23.198;2022-11-15T16:44:10;118.07;;;51.35;;
34505;SDS011;20748;42.632;23.198;2022-11-15T16:46:43;109.03;;;46.30;;
34505;SDS011;20748;42.632;23.198;2022-11-15T16:49:22;135.32;;;57.65;;